createdAt,value
2018-07-28T00:01:14.957Z,10.20
2018-07-28T00:03:43.634Z,9.70
2018-07-28T00:06:12.336Z,10.10
2018-07-28T00:08:41.007Z,10.50
2018-07-28T00:11:09.672Z,9.87
2018-07-28T00:13:38.669Z,10.33
2018-07-28T00:16:07.454Z,10.40
2018-07-28T00:18:36.099Z,10.70
2018-07-28T00:21:04.806Z,10.17
2018-07-28T00:23:33.463Z,11.37
2018-07-28T00:26:07.360Z,10.90
2018-07-28T00:28:36.027Z,10.60
2018-07-28T00:31:04.742Z,10.53
2018-07-28T00:33:33.391Z,10.83
2018-07-28T00:36:02.069Z,10.23
2018-07-28T00:38:30.712Z,11.70
2018-07-28T00:40:59.448Z,10.60
2018-07-28T00:43:28.116Z,10.80
2018-07-28T00:45:56.820Z,10.33
2018-07-28T00:48:25.452Z,10.80
2018-07-28T00:50:54.248Z,10.30
2018-07-28T00:53:22.887Z,11.43
2018-07-28T00:55:51.578Z,10.23
2018-07-28T00:58:20.231Z,9.77
2018-07-28T01:00:48.931Z,10.80
2018-07-28T01:03:17.589Z,11.40
2018-07-28T01:05:46.256Z,10.63
2018-07-28T01:08:14.934Z,11.30
2018-07-28T01:10:43.675Z,10.93
2018-07-28T01:13:12.328Z,11.03
2018-07-28T01:15:41.012Z,11.07
2018-07-28T01:18:09.692Z,10.93
2018-07-28T01:20:38.386Z,11.40
2018-07-28T01:23:07.084Z,11.33
2018-07-28T01:25:35.778Z,10.83
2018-07-28T01:28:04.434Z,11.07
2018-07-28T01:30:33.405Z,11.70
2018-07-28T01:33:02.163Z,11.43
2018-07-28T01:35:30.876Z,11.60
2018-07-28T01:37:59.528Z,11.73
2018-07-28T01:40:28.169Z,11.47
2018-07-28T01:42:56.851Z,12.00
2018-07-28T01:45:25.509Z,12.70
2018-07-28T01:47:54.164Z,11.50
2018-07-28T01:50:22.809Z,11.90
2018-07-28T01:52:51.544Z,11.50
2018-07-28T01:55:20.194Z,11.73
2018-07-28T01:57:48.878Z,12.00
2018-07-28T02:00:17.558Z,12.60
2018-07-28T02:02:46.211Z,11.80
2018-07-28T02:05:14.882Z,11.87
2018-07-28T02:07:43.624Z,11.83
2018-07-28T02:10:12.326Z,12.87
2018-07-28T02:12:41.037Z,12.90
2018-07-28T02:15:09.795Z,12.80
2018-07-28T02:17:38.487Z,11.80
2018-07-28T02:20:07.927Z,12.93
2018-07-28T02:22:36.601Z,12.40
2018-07-28T02:25:07.408Z,12.40
2018-07-28T02:27:36.183Z,12.70
2018-07-28T02:30:05.475Z,12.43
2018-07-28T02:32:34.271Z,11.83
2018-07-28T02:35:02.964Z,12.90
2018-07-28T02:37:31.660Z,13.57
2018-07-28T02:40:00.334Z,13.73
2018-07-28T02:42:28.999Z,13.90
2018-07-28T02:44:57.679Z,13.27
2018-07-28T02:47:26.367Z,13.23
2018-07-28T02:49:55.039Z,13.93
2018-07-28T02:52:23.717Z,13.73
2018-07-28T02:54:52.394Z,13.30
2018-07-28T02:57:21.085Z,13.03
2018-07-28T02:59:49.741Z,14.13
2018-07-28T03:02:18.427Z,13.20
2018-07-28T03:04:47.082Z,14.57
2018-07-28T03:07:15.784Z,14.00
2018-07-28T03:09:44.427Z,13.80
2018-07-28T03:12:13.124Z,14.83
2018-07-28T03:14:41.780Z,14.63
2018-07-28T03:17:10.469Z,13.53
2018-07-28T03:19:39.232Z,15.13
2018-07-28T03:22:08.074Z,13.97
2018-07-28T03:24:36.744Z,13.63
2018-07-28T03:27:05.936Z,14.33
2018-07-28T03:29:34.884Z,14.20
2018-07-28T03:32:03.645Z,14.93
2018-07-28T03:34:32.291Z,14.57
2018-07-28T03:37:00.964Z,14.67
2018-07-28T03:39:29.622Z,14.27
2018-07-28T03:41:58.294Z,14.57
2018-07-28T03:44:26.935Z,14.57
2018-07-28T03:46:55.611Z,15.13
2018-07-28T03:49:24.371Z,15.00
2018-07-28T03:51:53.006Z,15.33
2018-07-28T03:54:21.698Z,14.87
2018-07-28T03:56:50.359Z,14.97
2018-07-28T03:59:19.029Z,15.57
2018-07-28T04:01:47.712Z,14.87
2018-07-28T04:04:16.408Z,15.30
2018-07-28T04:06:45.069Z,15.40
2018-07-28T04:09:13.770Z,15.50
2018-07-28T04:11:42.442Z,14.90
2018-07-28T04:14:11.105Z,14.70
2018-07-28T04:16:39.743Z,15.27
2018-07-28T04:19:08.439Z,14.73
2018-07-28T04:21:37.104Z,15.80
2018-07-28T04:24:05.774Z,14.53
2018-07-28T04:26:34.437Z,15.80
2018-07-28T04:29:03.109Z,14.27
2018-07-28T04:31:31.778Z,15.07
2018-07-28T04:34:00.483Z,14.90
2018-07-28T04:36:29.144Z,14.77
2018-07-28T04:38:57.803Z,14.50
2018-07-28T04:41:26.482Z,15.97
2018-07-28T04:43:55.168Z,15.07
2018-07-28T04:46:23.840Z,15.03
2018-07-28T04:48:52.546Z,14.93
2018-07-28T04:51:21.216Z,14.97
2018-07-28T04:53:49.891Z,14.53
2018-07-28T04:56:18.527Z,14.40
2018-07-28T04:58:47.206Z,14.10
2018-07-28T05:01:15.841Z,14.20
2018-07-28T05:03:44.511Z,14.40
2018-07-28T05:06:13.157Z,15.57
2018-07-28T05:08:41.847Z,14.80
2018-07-28T05:11:10.543Z,14.97
2018-07-28T05:13:39.195Z,15.27
2018-07-28T05:16:07.835Z,14.10
2018-07-28T05:18:36.496Z,13.53
2018-07-28T05:21:05.301Z,14.33
2018-07-28T05:23:33.962Z,13.53
2018-07-28T05:26:02.622Z,12.80
2018-07-28T05:28:31.313Z,12.70
2018-07-28T05:30:59.964Z,12.90
2018-07-28T05:33:28.627Z,13.20
2018-07-28T05:35:57.380Z,12.20
2018-07-28T05:38:26.095Z,11.73
2018-07-28T05:40:54.724Z,11.50
2018-07-28T05:43:23.364Z,11.90
2018-07-28T05:45:52.013Z,10.53
2018-07-28T05:48:20.663Z,11.23
2018-07-28T05:50:49.313Z,10.97
2018-07-28T05:53:17.977Z,11.10
2018-07-28T05:55:46.631Z,10.70
2018-07-28T05:58:15.260Z,10.73
2018-07-28T06:00:43.940Z,10.90
2018-07-28T06:03:12.593Z,11.50
2018-07-28T06:05:41.264Z,12.07
2018-07-28T06:08:09.953Z,11.80
2018-07-28T06:10:38.679Z,10.67
2018-07-28T06:13:07.367Z,11.17
2018-07-28T06:15:36.064Z,11.47
2018-07-28T06:18:04.772Z,10.73
2018-07-28T06:20:33.474Z,11.37
2018-07-28T06:23:02.116Z,10.50
2018-07-28T06:25:30.791Z,10.80
2018-07-28T06:27:59.432Z,10.57
2018-07-28T06:30:28.171Z,9.53
2018-07-28T06:32:56.819Z,10.30
2018-07-28T06:35:25.474Z,10.30
2018-07-28T06:37:54.125Z,10.23
2018-07-28T06:40:22.829Z,10.43
2018-07-28T06:42:51.467Z,10.67
2018-07-28T06:45:20.133Z,10.47
2018-07-28T06:47:48.776Z,9.70
2018-07-28T06:50:17.462Z,10.20
2018-07-28T06:52:46.107Z,9.73
2018-07-28T06:55:14.780Z,9.60
2018-07-28T06:57:43.442Z,8.87
2018-07-28T07:00:12.196Z,9.80
2018-07-28T07:02:40.861Z,9.67
2018-07-28T07:05:09.786Z,9.00
2018-07-28T07:07:38.468Z,9.07
2018-07-28T07:10:07.572Z,9.10
2018-07-28T07:12:36.231Z,9.07
2018-07-28T07:15:05.357Z,9.90
2018-07-28T07:17:34.038Z,9.47
2018-07-28T07:20:02.717Z,9.53
2018-07-28T07:22:31.610Z,10.13
2018-07-28T07:25:00.279Z,9.43
2018-07-28T07:27:28.940Z,10.50
2018-07-28T07:29:57.621Z,9.30
2018-07-28T07:32:30.300Z,9.53
2018-07-28T07:34:59.062Z,8.90
2018-07-28T07:37:27.704Z,9.50
2018-07-28T07:39:56.370Z,9.30
2018-07-28T07:42:25.016Z,8.93
2018-07-28T07:44:53.756Z,8.90
2018-07-28T07:47:22.477Z,9.50
2018-07-28T07:49:51.113Z,9.10
2018-07-28T07:52:19.638Z,8.97
2018-07-28T07:54:48.171Z,9.60
2018-07-28T07:57:16.664Z,8.90
2018-07-28T07:59:45.223Z,8.23
2018-07-28T08:02:13.787Z,8.90
2018-07-28T08:04:42.374Z,9.60
2018-07-28T08:07:10.922Z,8.70
2018-07-28T08:09:39.446Z,8.90
2018-07-28T08:12:08.158Z,9.47
2018-07-28T08:14:36.700Z,8.60
2018-07-28T08:17:05.494Z,8.70
2018-07-28T08:19:34.032Z,8.90
2018-07-28T08:22:02.577Z,9.00
2018-07-28T08:24:31.085Z,8.20
2018-07-28T08:29:18.014Z,9.80
2018-07-28T08:31:46.559Z,8.00
2018-07-28T08:34:15.076Z,8.17
2018-07-28T08:36:43.634Z,8.00
2018-07-28T08:39:14.744Z,7.60
2018-07-28T08:41:44.190Z,8.40
2018-07-28T08:44:13.316Z,8.00
2018-07-28T08:46:41.857Z,8.27
2018-07-28T08:49:10.390Z,8.00
2018-07-28T08:51:38.985Z,7.20
2018-07-28T08:54:07.584Z,7.23
2018-07-28T08:56:36.132Z,7.27
2018-07-28T08:59:04.687Z,7.47
2018-07-28T09:01:33.215Z,6.70
2018-07-28T09:04:01.744Z,6.77
2018-07-28T09:06:30.294Z,7.00
2018-07-28T09:08:58.825Z,6.67
2018-07-28T09:11:27.376Z,6.20
2018-07-28T09:13:55.886Z,5.87
2018-07-28T09:16:24.495Z,6.27
2018-07-28T09:18:53.092Z,6.90
2018-07-28T09:21:21.653Z,7.27
2018-07-28T09:23:50.186Z,7.30
2018-07-28T09:26:18.731Z,6.80
2018-07-28T09:28:47.250Z,7.30
2018-07-28T09:31:15.796Z,6.63
2018-07-28T09:33:44.316Z,6.90
2018-07-28T09:36:12.884Z,6.83
2018-07-28T09:38:41.424Z,6.50
2018-07-28T09:41:09.998Z,6.50
2018-07-28T09:43:38.551Z,6.60
2018-07-28T09:46:07.224Z,6.40
2018-07-28T09:48:35.759Z,5.70
2018-07-28T09:51:04.332Z,6.00
2018-07-28T09:53:32.872Z,6.10
2018-07-28T09:56:01.425Z,6.43
2018-07-28T09:58:29.955Z,6.47
2018-07-28T10:00:59.440Z,5.73
2018-07-28T10:03:28.719Z,5.33
2018-07-28T10:05:57.719Z,6.23
2018-07-28T10:08:26.273Z,5.77
2018-07-28T10:10:54.804Z,5.30
2018-07-28T10:13:23.358Z,5.30
2018-07-28T10:15:51.901Z,5.53
2018-07-28T10:18:20.468Z,5.63
2018-07-28T10:20:48.982Z,5.50
2018-07-28T10:23:17.541Z,5.80
2018-07-28T10:25:46.057Z,5.20
2018-07-28T10:28:14.602Z,5.80
2018-07-28T10:30:43.207Z,4.73
2018-07-28T10:33:11.736Z,5.43
2018-07-28T10:35:40.259Z,4.93
2018-07-28T10:38:08.817Z,5.27
2018-07-28T10:40:37.345Z,4.90
2018-07-28T10:43:06.087Z,4.50
2018-07-28T10:45:34.659Z,5.10
2018-07-28T10:48:03.179Z,5.13
2018-07-28T10:50:31.721Z,4.50
2018-07-28T10:53:00.235Z,5.10
2018-07-28T10:55:28.793Z,4.60
2018-07-28T10:57:57.360Z,5.17
2018-07-28T11:00:25.904Z,4.43
2018-07-28T11:02:54.454Z,5.20
2018-07-28T11:05:22.979Z,4.50
2018-07-28T11:07:51.537Z,5.10
2018-07-28T11:10:20.057Z,4.93
2018-07-28T11:12:48.622Z,4.80
2018-07-28T11:15:17.163Z,5.17
2018-07-28T11:17:45.750Z,5.37
2018-07-28T11:20:14.268Z,4.90
2018-07-28T11:22:42.954Z,6.53
2018-07-28T11:25:11.376Z,4.73
2018-07-28T11:27:40.039Z,5.47
2018-07-28T11:30:09.016Z,5.07
2018-07-28T11:32:48.792Z,5.70
2018-07-28T11:35:28.537Z,5.03
2018-07-28T11:38:19.132Z,5.33
2018-07-28T11:42:55.047Z,5.50
2018-07-28T11:45:23.618Z,5.47
2018-07-28T11:47:52.180Z,4.83
2018-07-28T11:50:20.687Z,5.00
2018-07-28T11:52:49.212Z,4.70
2018-07-28T11:55:17.731Z,5.00
2018-07-28T11:57:46.276Z,5.60
2018-07-28T12:00:14.810Z,5.63
2018-07-28T12:02:43.352Z,5.57
2018-07-28T12:05:11.859Z,5.77
2018-07-28T12:07:40.438Z,5.00
2018-07-28T12:10:09.537Z,5.10
2018-07-28T12:12:38.328Z,5.07
2018-07-28T12:15:07.490Z,5.20
2018-07-28T12:17:36.016Z,5.50
2018-07-28T12:20:04.815Z,5.57
2018-07-28T12:22:33.345Z,5.10
2018-07-28T12:25:01.871Z,5.30
2018-07-28T12:27:30.394Z,5.00
2018-07-28T12:29:58.931Z,5.07
2018-07-28T12:32:27.456Z,4.47
2018-07-28T12:34:56.032Z,4.60
2018-07-28T12:37:24.539Z,4.40
2018-07-28T12:39:53.073Z,4.17
2018-07-28T12:42:21.611Z,5.27
2018-07-28T12:44:50.145Z,5.50
2018-07-28T12:47:18.701Z,4.93
2018-07-28T12:49:47.232Z,4.90
2018-07-28T12:52:15.785Z,4.80
2018-07-28T12:54:44.303Z,4.53
2018-07-28T12:57:12.835Z,4.57
2018-07-28T12:59:41.388Z,4.83
2018-07-28T13:02:09.912Z,4.10
2018-07-28T13:04:38.460Z,4.67
2018-07-28T13:07:07.086Z,4.40
2018-07-28T13:09:35.649Z,4.80
2018-07-28T13:12:04.161Z,4.67
2018-07-28T13:14:32.711Z,4.37
2018-07-28T13:17:01.315Z,4.87
2018-07-28T13:19:29.859Z,4.20
2018-07-28T13:21:58.411Z,4.20
2018-07-28T13:24:26.955Z,4.67
2018-07-28T13:26:55.465Z,4.40
2018-07-28T13:29:23.993Z,4.77
2018-07-28T13:31:52.517Z,4.80
2018-07-28T13:34:21.050Z,4.40
2018-07-28T13:36:49.556Z,4.70
2018-07-28T13:39:18.101Z,4.30
2018-07-28T13:41:46.623Z,4.97
2018-07-28T13:44:15.181Z,5.10
2018-07-28T13:46:43.707Z,5.23
2018-07-28T13:49:12.257Z,4.50
2018-07-28T13:51:40.809Z,4.97
2018-07-28T13:54:09.368Z,4.73
2018-07-28T13:56:37.976Z,4.87
2018-07-28T13:59:06.584Z,4.20
2018-07-28T14:01:35.179Z,5.10
2018-07-28T14:04:04.040Z,4.53
2018-07-28T14:06:32.583Z,4.50
2018-07-28T14:09:01.140Z,4.80
2018-07-28T14:11:29.679Z,4.70
2018-07-28T14:13:58.218Z,4.87
2018-07-28T14:16:26.748Z,4.63
2018-07-28T14:18:55.381Z,5.03
2018-07-28T14:21:23.884Z,5.07
2018-07-28T14:23:52.430Z,5.43
2018-07-28T14:26:20.976Z,4.93
2018-07-28T14:28:49.492Z,5.07
2018-07-28T14:31:18.018Z,5.00
2018-07-28T14:33:46.526Z,5.20
2018-07-28T14:36:15.076Z,4.83
2018-07-28T14:38:43.606Z,5.57
2018-07-28T14:41:12.167Z,5.70
2018-07-28T14:43:40.707Z,5.33
2018-07-28T14:46:09.298Z,5.90
2018-07-28T14:48:37.910Z,7.87
2018-07-28T14:51:06.825Z,8.57
2018-07-28T14:53:35.439Z,9.07
2018-07-28T14:56:04.117Z,7.83
2018-07-28T14:58:32.709Z,8.00
2018-07-28T15:01:01.332Z,9.93
2018-07-28T15:03:29.865Z,9.60
2018-07-28T15:05:58.411Z,11.70
2018-07-28T15:08:26.955Z,11.63
2018-07-28T15:10:56.001Z,10.97
2018-07-28T15:13:24.603Z,11.20
2018-07-28T15:15:53.154Z,11.00
2018-07-28T15:18:21.698Z,13.53
2018-07-28T15:20:50.284Z,12.70
2018-07-28T15:23:18.889Z,11.80
2018-07-28T15:25:47.460Z,14.00
2018-07-28T15:28:16.013Z,13.00
2018-07-28T15:30:44.572Z,12.20
2018-07-28T15:33:13.121Z,12.90
2018-07-28T15:35:41.679Z,12.47
2018-07-28T15:38:10.210Z,12.97
2018-07-28T15:40:38.900Z,14.77
2018-07-28T15:43:07.465Z,15.10
2018-07-28T15:45:36.199Z,14.57
2018-07-28T15:48:04.846Z,15.23
2018-07-28T15:50:33.378Z,16.60
2018-07-28T15:53:01.944Z,15.20
2018-07-28T15:55:30.505Z,16.53
2018-07-28T15:57:59.095Z,13.93
2018-07-28T16:00:27.710Z,13.67
2018-07-28T16:02:56.270Z,15.53
2018-07-28T16:05:24.815Z,15.67
2018-07-28T16:07:53.385Z,16.13
2018-07-28T16:10:21.928Z,18.03
2018-07-28T16:12:50.498Z,19.87
2018-07-28T16:15:19.047Z,19.30
2018-07-28T16:17:47.665Z,18.47
2018-07-28T16:20:16.282Z,17.40
2018-07-28T16:22:44.781Z,18.70
2018-07-28T16:25:13.314Z,18.07
2018-07-28T16:27:41.907Z,19.70
2018-07-28T16:30:10.695Z,19.10
2018-07-28T16:32:39.328Z,18.37
2018-07-28T16:35:08.147Z,18.47
2018-07-28T16:37:36.908Z,18.60
2018-07-28T16:40:05.749Z,18.13
2018-07-28T16:42:34.353Z,15.93
2018-07-28T16:45:02.884Z,16.60
2018-07-28T16:47:31.441Z,16.93
2018-07-28T16:49:59.970Z,19.00
2018-07-28T16:52:28.510Z,18.50
2018-07-28T16:54:57.034Z,19.40
2018-07-28T16:57:25.670Z,18.07
2018-07-28T16:59:54.211Z,19.10
2018-07-28T17:02:22.837Z,20.17
2018-07-28T17:04:51.482Z,18.90
2018-07-28T17:07:20.027Z,19.53
2018-07-28T17:09:48.563Z,19.47
2018-07-28T17:12:17.127Z,19.53
2018-07-28T17:14:45.657Z,20.90
2018-07-28T17:17:14.201Z,19.63
2018-07-28T17:19:42.728Z,20.13
2018-07-28T17:22:11.286Z,19.57
2018-07-28T17:24:39.799Z,19.27
2018-07-28T17:27:08.340Z,17.67
2018-07-28T17:29:36.863Z,18.30
2018-07-28T17:32:05.441Z,18.73
2018-07-28T17:34:33.968Z,18.37
2018-07-28T17:37:02.564Z,18.70
2018-07-28T17:39:31.105Z,18.20
2018-07-28T17:41:59.670Z,20.87
2018-07-28T17:44:28.179Z,21.00
2018-07-28T17:46:56.742Z,19.00
2018-07-28T17:49:25.276Z,19.17
2018-07-28T17:51:53.832Z,18.00
2018-07-28T17:54:22.355Z,18.47
2018-07-28T17:56:50.922Z,18.63
2018-07-28T17:59:19.451Z,20.43
2018-07-28T18:01:48.016Z,20.37
2018-07-28T18:04:16.604Z,20.00
2018-07-28T18:06:45.189Z,21.80
2018-07-28T18:09:13.758Z,21.97
2018-07-28T18:11:42.307Z,21.97
2018-07-28T18:14:10.854Z,17.53
2018-07-28T18:16:39.379Z,19.30
2018-07-28T18:19:07.920Z,18.23
2018-07-28T18:21:36.475Z,18.50
2018-07-28T18:24:05.039Z,18.90
2018-07-28T18:26:33.594Z,19.03
2018-07-28T18:29:02.159Z,19.20
2018-07-28T18:31:30.696Z,20.80
2018-07-28T18:33:59.249Z,20.30
2018-07-28T18:36:27.809Z,20.27
2018-07-28T18:38:56.385Z,20.27
2018-07-28T18:41:24.941Z,21.50
2018-07-28T18:43:53.496Z,21.67
2018-07-28T18:46:22.038Z,22.57
2018-07-28T18:48:50.634Z,22.20
2018-07-28T18:51:19.178Z,23.67
2018-07-28T18:53:47.748Z,27.77
2018-07-28T18:56:16.337Z,33.10
2018-07-28T18:58:44.887Z,35.33
2018-07-28T19:01:13.419Z,30.47
2018-07-28T19:03:41.972Z,33.60
2018-07-28T19:06:10.507Z,28.27
2018-07-28T19:08:39.106Z,19.60
2018-07-28T19:11:08.078Z,24.00
2018-07-28T19:13:40.862Z,24.20
2018-07-28T19:16:09.444Z,20.20
2018-07-28T19:19:42.898Z,21.10
2018-07-28T19:22:16.542Z,20.03
2018-07-28T19:24:45.109Z,19.50
2018-07-28T19:27:13.645Z,19.33
2018-07-28T19:29:43.685Z,20.03
2018-07-28T19:32:12.405Z,20.23
2018-07-28T19:34:41.352Z,18.20
2018-07-28T19:37:15.071Z,17.63
2018-07-28T19:39:43.638Z,16.20
2018-07-28T19:42:17.352Z,15.97
2018-07-28T19:44:45.903Z,17.10
2018-07-28T19:47:14.466Z,17.20
2018-07-28T19:49:43.027Z,18.57
2018-07-28T19:52:11.548Z,16.97
2018-07-28T19:54:40.101Z,17.30
2018-07-28T19:57:08.636Z,17.53
2018-07-28T19:59:37.180Z,19.60
2018-07-28T20:02:05.745Z,21.03
2018-07-28T20:04:34.300Z,18.90
2018-07-28T20:07:02.881Z,17.97
2018-07-28T20:09:31.462Z,17.93
2018-07-28T20:12:00.011Z,18.50
2018-07-28T20:14:28.585Z,18.23
2018-07-28T20:16:57.165Z,20.00
2018-07-28T20:19:25.746Z,20.57
2018-07-28T20:21:54.306Z,19.03
2018-07-28T20:24:22.864Z,18.70
2018-07-28T20:26:51.412Z,19.23
2018-07-28T20:29:19.966Z,19.03
2018-07-28T20:31:48.531Z,18.87
2018-07-28T20:34:17.145Z,19.37
2018-07-28T20:36:45.691Z,18.20
2018-07-28T20:39:14.318Z,19.23
2018-07-28T20:41:42.872Z,19.57
2018-07-28T20:44:11.439Z,19.40
2018-07-28T20:46:40.025Z,20.63
2018-07-28T20:49:08.598Z,18.70
2018-07-28T20:51:37.159Z,19.23
2018-07-28T20:54:05.722Z,17.50
2018-07-28T20:56:34.291Z,19.27
2018-07-28T20:59:02.845Z,19.30
2018-07-28T21:01:31.365Z,19.73
2018-07-28T21:03:59.933Z,18.47
2018-07-28T21:06:28.474Z,19.90
2018-07-28T21:08:57.017Z,19.73
2018-07-28T21:11:25.696Z,19.67
2018-07-28T21:13:54.360Z,19.43
2018-07-28T21:16:23.052Z,21.70
2018-07-28T21:18:51.737Z,21.70
2018-07-28T21:21:20.417Z,22.13
2018-07-28T21:23:49.072Z,23.43
2018-07-28T21:26:17.778Z,23.70
2018-07-28T21:28:46.442Z,25.03
2018-07-28T21:31:15.132Z,23.73
2018-07-28T21:33:43.878Z,25.37
2018-07-28T21:36:12.519Z,24.60
2018-07-28T21:38:41.206Z,24.20
2018-07-28T21:41:09.973Z,24.23
2018-07-28T21:43:38.717Z,25.67
2018-07-28T21:46:07.466Z,24.73
2018-07-28T21:48:36.133Z,25.40
2018-07-28T21:51:04.832Z,26.80
2018-07-28T21:53:33.491Z,25.77
2018-07-28T21:56:02.176Z,25.43
2018-07-28T21:58:30.831Z,25.53
2018-07-28T22:01:16.023Z,24.57
2018-07-28T22:03:44.695Z,25.70
2018-07-28T22:06:13.400Z,25.07
2018-07-28T22:08:42.208Z,25.13
2018-07-28T22:11:10.925Z,25.30
2018-07-28T22:13:39.590Z,26.47
2018-07-28T22:16:08.419Z,25.53
2018-07-28T22:18:37.098Z,24.17
2018-07-28T22:21:05.826Z,25.10
2018-07-28T22:23:34.493Z,24.60
2018-07-28T22:26:03.236Z,24.63
2018-07-28T22:28:31.909Z,26.20
2018-07-28T22:31:00.612Z,25.50
2018-07-28T22:33:29.274Z,26.93
2018-07-28T22:35:57.984Z,27.47
2018-07-28T22:38:26.668Z,29.00
2018-07-28T22:40:55.362Z,27.90
2018-07-28T22:43:24.034Z,29.23
2018-07-28T22:45:52.719Z,28.60
2018-07-28T22:48:21.387Z,26.93
2018-07-28T22:50:50.141Z,29.77
2018-07-28T22:53:18.819Z,30.30
2018-07-28T22:55:47.525Z,30.47
2018-07-28T22:58:16.203Z,30.60
2018-07-28T23:00:44.908Z,30.70
2018-07-28T23:03:13.658Z,29.27
2018-07-28T23:05:42.355Z,30.40
2018-07-28T23:08:11.088Z,30.73
2018-07-28T23:10:39.795Z,31.20
2018-07-28T23:13:08.465Z,29.80
2018-07-28T23:15:37.144Z,31.27
2018-07-28T23:18:05.869Z,31.67
2018-07-28T23:20:34.571Z,31.40
2018-07-28T23:23:03.221Z,31.03
2018-07-28T23:25:31.948Z,31.90
2018-07-28T23:28:00.585Z,31.87
2018-07-28T23:30:29.273Z,31.20
2018-07-28T23:32:57.966Z,31.83
2018-07-28T23:35:26.686Z,34.00
2018-07-28T23:37:55.419Z,32.80
2018-07-28T23:40:24.121Z,33.67
2018-07-28T23:42:52.823Z,33.03
2018-07-28T23:45:21.528Z,33.37
2018-07-28T23:47:50.221Z,34.80
2018-07-28T23:50:18.942Z,34.77
2018-07-28T23:52:47.632Z,34.53
2018-07-28T23:55:16.322Z,33.60
2018-07-28T23:57:45.036Z,34.93
